sensor_id;sensor_type;location;lat;lon;timestamp;P1;durP1;ratioP1;P2;durP2;ratioP2
74213;SDS011;62576;55.694;37.494;2023-01-13T00:00:16;9.45;;;3.63;;
74213;SDS011;62576;55.694;37.494;2023-01-13T00:02:47;10.57;;;4.22;;
74213;SDS011;62576;55.694;37.494;2023-01-13T00:05:17;9.68;;;4.40;;
74213;SDS011;62576;55.694;37.494;2023-01-13T00:07:47;9.40;;;3.75;;
74213;SDS011;62576;55.694;37.494;2023-01-13T00:10:17;8.02;;;3.35;;
74213;SDS011;62576;55.694;37.494;2023-01-13T00:12:50;10.35;;;4.18;;
74213;SDS011;62576;55.694;37.494;2023-01-13T00:15:22;10.87;;;4.17;;
74213;SDS011;62576;55.694;37.494;2023-01-13T00:17:52;8.18;;;3.38;;
74213;SDS011;62576;55.694;37.494;2023-01-13T00:20:22;9.52;;;3.80;;
74213;SDS011;62576;55.694;37.494;2023-01-13T00:22:52;8.93;;;4.28;;
74213;SDS011;62576;55.694;37.494;2023-01-13T00:25:22;8.70;;;3.53;;
74213;SDS011;62576;55.694;37.494;2023-01-13T00:27:52;12.80;;;4.60;;
74213;SDS011;62576;55.694;37.494;2023-01-13T00:30:24;8.63;;;4.00;;
74213;SDS011;62576;55.694;37.494;2023-01-13T00:32:54;9.65;;;3.22;;
74213;SDS011;62576;55.694;37.494;2023-01-13T00:35:24;10.38;;;3.75;;
74213;SDS011;62576;55.694;37.494;2023-01-13T00:37:53;11.32;;;4.30;;
74213;SDS011;62576;55.694;37.494;2023-01-13T00:40:23;10.82;;;4.35;;
74213;SDS011;62576;55.694;37.494;2023-01-13T00:42:53;7.50;;;3.42;;
74213;SDS011;62576;55.694;37.494;2023-01-13T00:45:43;11.27;;;4.30;;
74213;SDS011;62576;55.694;37.494;2023-01-13T00:48:13;10.40;;;3.88;;
74213;SDS011;62576;55.694;37.494;2023-01-13T00:50:43;11.48;;;4.15;;
74213;SDS011;62576;55.694;37.494;2023-01-13T00:53:13;12.15;;;4.68;;
74213;SDS011;62576;55.694;37.494;2023-01-13T00:55:44;12.68;;;4.50;;
74213;SDS011;62576;55.694;37.494;2023-01-13T00:58:14;9.02;;;4.38;;
74213;SDS011;62576;55.694;37.494;2023-01-13T01:00:48;10.07;;;4.32;;
74213;SDS011;62576;55.694;37.494;2023-01-13T01:03:18;8.25;;;3.83;;
74213;SDS011;62576;55.694;37.494;2023-01-13T01:05:48;10.25;;;4.35;;
74213;SDS011;62576;55.694;37.494;2023-01-13T01:08:18;9.77;;;4.10;;
74213;SDS011;62576;55.694;37.494;2023-01-13T01:10:48;8.65;;;3.75;;
74213;SDS011;62576;55.694;37.494;2023-01-13T01:13:18;9.75;;;4.10;;
74213;SDS011;62576;55.694;37.494;2023-01-13T01:15:49;11.38;;;4.47;;
74213;SDS011;62576;55.694;37.494;2023-01-13T01:18:19;7.80;;;4.22;;
74213;SDS011;62576;55.694;37.494;2023-01-13T01:20:49;8.75;;;3.50;;
74213;SDS011;62576;55.694;37.494;2023-01-13T01:23:19;10.02;;;4.05;;
74213;SDS011;62576;55.694;37.494;2023-01-13T01:25:49;11.15;;;4.43;;
74213;SDS011;62576;55.694;37.494;2023-01-13T01:28:19;10.00;;;3.95;;
74213;SDS011;62576;55.694;37.494;2023-01-13T01:30:51;11.20;;;3.67;;
74213;SDS011;62576;55.694;37.494;2023-01-13T01:33:22;8.07;;;3.25;;
74213;SDS011;62576;55.694;37.494;2023-01-13T01:35:52;13.07;;;4.47;;
74213;SDS011;62576;55.694;37.494;2023-01-13T01:38:23;9.18;;;4.03;;
74213;SDS011;62576;55.694;37.494;2023-01-13T01:40:52;9.70;;;4.05;;
74213;SDS011;62576;55.694;37.494;2023-01-13T01:46:28;11.82;;;3.95;;
74213;SDS011;62576;55.694;37.494;2023-01-13T01:51:47;12.80;;;3.75;;
74213;SDS011;62576;55.694;37.494;2023-01-13T01:54:22;8.52;;;3.67;;
74213;SDS011;62576;55.694;37.494;2023-01-13T01:56:56;11.35;;;4.13;;
74213;SDS011;62576;55.694;37.494;2023-01-13T01:59:27;6.38;;;3.03;;
74213;SDS011;62576;55.694;37.494;2023-01-13T02:02:02;10.18;;;3.88;;
74213;SDS011;62576;55.694;37.494;2023-01-13T02:04:33;11.20;;;3.30;;
74213;SDS011;62576;55.694;37.494;2023-01-13T02:07:07;11.20;;;4.20;;
74213;SDS011;62576;55.694;37.494;2023-01-13T02:09:37;13.55;;;4.47;;
74213;SDS011;62576;55.694;37.494;2023-01-13T02:12:04;9.75;;;4.00;;
74213;SDS011;62576;55.694;37.494;2023-01-13T02:15:04;10.68;;;3.83;;
74213;SDS011;62576;55.694;37.494;2023-01-13T02:26:56;8.85;;;3.78;;
74213;SDS011;62576;55.694;37.494;2023-01-13T02:33:12;8.13;;;3.25;;
74213;SDS011;62576;55.694;37.494;2023-01-13T02:35:49;9.57;;;3.67;;
74213;SDS011;62576;55.694;37.494;2023-01-13T02:38:24;8.32;;;3.78;;
74213;SDS011;62576;55.694;37.494;2023-01-13T02:40:59;8.02;;;3.75;;
74213;SDS011;62576;55.694;37.494;2023-01-13T02:43:47;9.90;;;3.28;;
74213;SDS011;62576;55.694;37.494;2023-01-13T02:46:44;10.65;;;3.45;;
74213;SDS011;62576;55.694;37.494;2023-01-13T02:49:22;9.43;;;3.50;;
74213;SDS011;62576;55.694;37.494;2023-01-13T02:51:59;8.40;;;3.20;;
74213;SDS011;62576;55.694;37.494;2023-01-13T02:54:34;8.68;;;3.20;;
74213;SDS011;62576;55.694;37.494;2023-01-13T02:57:08;6.38;;;2.65;;
74213;SDS011;62576;55.694;37.494;2023-01-13T02:59:41;8.40;;;2.55;;
74213;SDS011;62576;55.694;37.494;2023-01-13T03:02:14;7.70;;;3.58;;
74213;SDS011;62576;55.694;37.494;2023-01-13T03:04:48;9.23;;;3.45;;
74213;SDS011;62576;55.694;37.494;2023-01-13T03:07:41;11.82;;;3.97;;
74213;SDS011;62576;55.694;37.494;2023-01-13T03:13:20;8.55;;;3.47;;
74213;SDS011;62576;55.694;37.494;2023-01-13T03:16:10;7.97;;;3.50;;
74213;SDS011;62576;55.694;37.494;2023-01-13T03:18:49;7.40;;;3.38;;
74213;SDS011;62576;55.694;37.494;2023-01-13T03:21:27;7.55;;;3.00;;
74213;SDS011;62576;55.694;37.494;2023-01-13T03:24:05;5.68;;;2.70;;
74213;SDS011;62576;55.694;37.494;2023-01-13T03:26:42;7.80;;;3.53;;
74213;SDS011;62576;55.694;37.494;2023-01-13T03:29:17;6.78;;;3.22;;
74213;SDS011;62576;55.694;37.494;2023-01-13T03:31:53;7.80;;;3.40;;
74213;SDS011;62576;55.694;37.494;2023-01-13T03:34:30;8.90;;;3.25;;
74213;SDS011;62576;55.694;37.494;2023-01-13T03:37:04;10.68;;;3.78;;
74213;SDS011;62576;55.694;37.494;2023-01-13T03:39:38;9.45;;;4.07;;
74213;SDS011;62576;55.694;37.494;2023-01-13T03:42:13;7.80;;;3.35;;
74213;SDS011;62576;55.694;37.494;2023-01-13T03:44:47;9.35;;;3.30;;
74213;SDS011;62576;55.694;37.494;2023-01-13T03:47:23;8.80;;;3.28;;
74213;SDS011;62576;55.694;37.494;2023-01-13T03:49:59;7.20;;;3.20;;
74213;SDS011;62576;55.694;37.494;2023-01-13T03:52:33;6.97;;;3.15;;
74213;SDS011;62576;55.694;37.494;2023-01-13T03:55:05;8.48;;;3.58;;
74213;SDS011;62576;55.694;37.494;2023-01-13T03:57:40;6.53;;;3.30;;
74213;SDS011;62576;55.694;37.494;2023-01-13T04:00:15;6.00;;;3.10;;
74213;SDS011;62576;55.694;37.494;2023-01-13T04:02:49;7.13;;;3.55;;
74213;SDS011;62576;55.694;37.494;2023-01-13T04:05:23;8.20;;;3.17;;
74213;SDS011;62576;55.694;37.494;2023-01-13T04:07:55;10.10;;;3.45;;
74213;SDS011;62576;55.694;37.494;2023-01-13T04:10:32;9.40;;;3.80;;
74213;SDS011;62576;55.694;37.494;2023-01-13T04:13:09;11.20;;;3.92;;
74213;SDS011;62576;55.694;37.494;2023-01-13T04:15:43;7.88;;;3.42;;
74213;SDS011;62576;55.694;37.494;2023-01-13T04:18:15;8.05;;;3.58;;
74213;SDS011;62576;55.694;37.494;2023-01-13T04:20:47;8.05;;;3.22;;
74213;SDS011;62576;55.694;37.494;2023-01-13T04:23:19;8.38;;;3.35;;
74213;SDS011;62576;55.694;37.494;2023-01-13T04:25:50;8.25;;;3.22;;
74213;SDS011;62576;55.694;37.494;2023-01-13T04:28:20;8.27;;;3.35;;
74213;SDS011;62576;55.694;37.494;2023-01-13T04:30:53;8.73;;;3.65;;
74213;SDS011;62576;55.694;37.494;2023-01-13T04:33:23;7.70;;;3.60;;
74213;SDS011;62576;55.694;37.494;2023-01-13T04:35:55;7.85;;;3.40;;
74213;SDS011;62576;55.694;37.494;2023-01-13T04:38:25;8.95;;;3.55;;
74213;SDS011;62576;55.694;37.494;2023-01-13T04:40:55;7.97;;;3.55;;
74213;SDS011;62576;55.694;37.494;2023-01-13T04:43:25;9.27;;;3.83;;
74213;SDS011;62576;55.694;37.494;2023-01-13T04:45:55;9.05;;;3.65;;
74213;SDS011;62576;55.694;37.494;2023-01-13T04:48:25;7.75;;;3.20;;
74213;SDS011;62576;55.694;37.494;2023-01-13T04:50:57;8.57;;;3.63;;
74213;SDS011;62576;55.694;37.494;2023-01-13T04:53:27;8.80;;;3.45;;
74213;SDS011;62576;55.694;37.494;2023-01-13T04:55:57;7.72;;;3.03;;
74213;SDS011;62576;55.694;37.494;2023-01-13T04:58:30;7.68;;;3.15;;
74213;SDS011;62576;55.694;37.494;2023-01-13T05:01:00;8.70;;;2.90;;
74213;SDS011;62576;55.694;37.494;2023-01-13T05:03:30;8.30;;;3.25;;
74213;SDS011;62576;55.694;37.494;2023-01-13T05:06:01;8.75;;;3.50;;
74213;SDS011;62576;55.694;37.494;2023-01-13T05:08:31;7.07;;;3.20;;
74213;SDS011;62576;55.694;37.494;2023-01-13T05:11:01;9.40;;;3.63;;
74213;SDS011;62576;55.694;37.494;2023-01-13T05:13:51;9.18;;;3.40;;
74213;SDS011;62576;55.694;37.494;2023-01-13T05:16:39;7.35;;;2.92;;
74213;SDS011;62576;55.694;37.494;2023-01-13T05:19:27;7.55;;;3.17;;
74213;SDS011;62576;55.694;37.494;2023-01-13T05:22:01;10.27;;;3.53;;
74213;SDS011;62576;55.694;37.494;2023-01-13T05:24:49;10.75;;;4.20;;
74213;SDS011;62576;55.694;37.494;2023-01-13T05:27:37;10.35;;;3.58;;
74213;SDS011;62576;55.694;37.494;2023-01-13T05:30:07;8.98;;;3.53;;
74213;SDS011;62576;55.694;37.494;2023-01-13T05:32:38;8.27;;;3.38;;
74213;SDS011;62576;55.694;37.494;2023-01-13T05:35:05;10.88;;;3.70;;
74213;SDS011;62576;55.694;37.494;2023-01-13T05:37:37;8.57;;;3.67;;
74213;SDS011;62576;55.694;37.494;2023-01-13T05:40:07;9.93;;;3.35;;
74213;SDS011;62576;55.694;37.494;2023-01-13T05:42:59;9.55;;;3.58;;
74213;SDS011;62576;55.694;37.494;2023-01-13T05:45:49;8.15;;;3.33;;
74213;SDS011;62576;55.694;37.494;2023-01-13T05:48:22;5.63;;;2.13;;
74213;SDS011;62576;55.694;37.494;2023-01-13T05:50:53;10.48;;;3.80;;
74213;SDS011;62576;55.694;37.494;2023-01-13T05:53:26;7.80;;;3.80;;
74213;SDS011;62576;55.694;37.494;2023-01-13T05:55:56;8.18;;;3.58;;
74213;SDS011;62576;55.694;37.494;2023-01-13T05:58:27;10.20;;;3.72;;
74213;SDS011;62576;55.694;37.494;2023-01-13T06:00:58;9.05;;;3.80;;
74213;SDS011;62576;55.694;37.494;2023-01-13T06:03:29;5.00;;;2.50;;
74213;SDS011;62576;55.694;37.494;2023-01-13T06:05:59;7.88;;;3.20;;
74213;SDS011;62576;55.694;37.494;2023-01-13T06:08:32;8.95;;;3.55;;
74213;SDS011;62576;55.694;37.494;2023-01-13T06:11:02;10.30;;;3.58;;
74213;SDS011;62576;55.694;37.494;2023-01-13T06:13:33;9.60;;;3.33;;
74213;SDS011;62576;55.694;37.494;2023-01-13T06:16:03;7.25;;;2.95;;
74213;SDS011;62576;55.694;37.494;2023-01-13T06:18:33;9.45;;;3.78;;
74213;SDS011;62576;55.694;37.494;2023-01-13T06:21:03;11.98;;;3.55;;
74213;SDS011;62576;55.694;37.494;2023-01-13T06:23:35;8.75;;;3.30;;
74213;SDS011;62576;55.694;37.494;2023-01-13T06:26:07;11.02;;;3.63;;
74213;SDS011;62576;55.694;37.494;2023-01-13T06:28:43;9.02;;;3.60;;
74213;SDS011;62576;55.694;37.494;2023-01-13T06:31:13;10.95;;;3.90;;
74213;SDS011;62576;55.694;37.494;2023-01-13T06:33:44;7.28;;;3.55;;
74213;SDS011;62576;55.694;37.494;2023-01-13T06:36:18;11.43;;;3.90;;
74213;SDS011;62576;55.694;37.494;2023-01-13T06:38:53;8.75;;;3.67;;
74213;SDS011;62576;55.694;37.494;2023-01-13T06:41:26;12.82;;;4.25;;
74213;SDS011;62576;55.694;37.494;2023-01-13T06:44:17;8.75;;;3.60;;
74213;SDS011;62576;55.694;37.494;2023-01-13T06:46:49;5.85;;;2.90;;
74213;SDS011;62576;55.694;37.494;2023-01-13T06:49:20;10.95;;;3.95;;
74213;SDS011;62576;55.694;37.494;2023-01-13T06:51:49;9.13;;;3.63;;
74213;SDS011;62576;55.694;37.494;2023-01-13T06:54:21;9.40;;;3.92;;
74213;SDS011;62576;55.694;37.494;2023-01-13T06:56:51;7.10;;;3.17;;
74213;SDS011;62576;55.694;37.494;2023-01-13T06:59:21;8.20;;;3.65;;
74213;SDS011;62576;55.694;37.494;2023-01-13T07:01:52;9.23;;;3.63;;
74213;SDS011;62576;55.694;37.494;2023-01-13T07:04:22;9.57;;;3.95;;
74213;SDS011;62576;55.694;37.494;2023-01-13T07:06:52;13.07;;;3.65;;
74213;SDS011;62576;55.694;37.494;2023-01-13T07:09:24;8.07;;;3.53;;
74213;SDS011;62576;55.694;37.494;2023-01-13T07:11:51;8.07;;;3.30;;
74213;SDS011;62576;55.694;37.494;2023-01-13T07:14:21;7.70;;;3.55;;
74213;SDS011;62576;55.694;37.494;2023-01-13T07:17:08;7.57;;;3.25;;
74213;SDS011;62576;55.694;37.494;2023-01-13T07:19:38;8.50;;;3.25;;
74213;SDS011;62576;55.694;37.494;2023-01-13T07:22:08;6.18;;;2.90;;
74213;SDS011;62576;55.694;37.494;2023-01-13T07:24:43;6.40;;;2.63;;
74213;SDS011;62576;55.694;37.494;2023-01-13T07:27:13;6.60;;;2.72;;
74213;SDS011;62576;55.694;37.494;2023-01-13T07:29:43;9.95;;;3.00;;
74213;SDS011;62576;55.694;37.494;2023-01-13T07:32:14;7.43;;;2.92;;
74213;SDS011;62576;55.694;37.494;2023-01-13T07:34:43;8.88;;;3.35;;
74213;SDS011;62576;55.694;37.494;2023-01-13T07:37:13;8.93;;;3.28;;
74213;SDS011;62576;55.694;37.494;2023-01-13T07:39:45;6.32;;;2.83;;
74213;SDS011;62576;55.694;37.494;2023-01-13T07:42:17;11.80;;;3.80;;
74213;SDS011;62576;55.694;37.494;2023-01-13T07:45:05;6.43;;;3.05;;
74213;SDS011;62576;55.694;37.494;2023-01-13T07:47:36;7.93;;;3.10;;
74213;SDS011;62576;55.694;37.494;2023-01-13T07:50:07;11.73;;;2.78;;
74213;SDS011;62576;55.694;37.494;2023-01-13T07:52:37;6.80;;;3.10;;
74213;SDS011;62576;55.694;37.494;2023-01-13T07:55:09;5.45;;;2.25;;
74213;SDS011;62576;55.694;37.494;2023-01-13T07:57:39;10.52;;;3.22;;
74213;SDS011;62576;55.694;37.494;2023-01-13T08:00:10;7.30;;;3.08;;
74213;SDS011;62576;55.694;37.494;2023-01-13T08:02:41;6.07;;;2.80;;
74213;SDS011;62576;55.694;37.494;2023-01-13T08:05:11;6.00;;;2.90;;
74213;SDS011;62576;55.694;37.494;2023-01-13T08:07:41;7.03;;;2.92;;
74213;SDS011;62576;55.694;37.494;2023-01-13T08:10:13;8.77;;;3.20;;
74213;SDS011;62576;55.694;37.494;2023-01-13T08:12:41;8.60;;;2.80;;
74213;SDS011;62576;55.694;37.494;2023-01-13T08:15:29;6.63;;;2.83;;
74213;SDS011;62576;55.694;37.494;2023-01-13T08:18:01;12.18;;;3.38;;
74213;SDS011;62576;55.694;37.494;2023-01-13T08:20:31;7.28;;;3.08;;
74213;SDS011;62576;55.694;37.494;2023-01-13T08:23:02;8.65;;;3.50;;
74213;SDS011;62576;55.694;37.494;2023-01-13T08:25:34;8.45;;;3.25;;
74213;SDS011;62576;55.694;37.494;2023-01-13T08:28:04;9.15;;;3.22;;
74213;SDS011;62576;55.694;37.494;2023-01-13T08:30:34;8.60;;;3.38;;
74213;SDS011;62576;55.694;37.494;2023-01-13T08:33:05;11.68;;;3.22;;
74213;SDS011;62576;55.694;37.494;2023-01-13T08:35:36;8.20;;;3.00;;
74213;SDS011;62576;55.694;37.494;2023-01-13T08:38:07;7.32;;;3.25;;
74213;SDS011;62576;55.694;37.494;2023-01-13T08:40:39;8.02;;;3.30;;
74213;SDS011;62576;55.694;37.494;2023-01-13T08:43:09;6.68;;;2.88;;
74213;SDS011;62576;55.694;37.494;2023-01-13T08:45:39;7.13;;;3.28;;
74213;SDS011;62576;55.694;37.494;2023-01-13T08:48:09;5.93;;;2.88;;
74213;SDS011;62576;55.694;37.494;2023-01-13T08:50:39;6.88;;;3.08;;
74213;SDS011;62576;55.694;37.494;2023-01-13T08:53:10;7.45;;;2.95;;
74213;SDS011;62576;55.694;37.494;2023-01-13T08:55:41;7.65;;;2.72;;
74213;SDS011;62576;55.694;37.494;2023-01-13T08:58:14;9.40;;;3.70;;
74213;SDS011;62576;55.694;37.494;2023-01-13T09:00:44;8.27;;;2.50;;
74213;SDS011;62576;55.694;37.494;2023-01-13T09:03:14;7.00;;;2.97;;
74213;SDS011;62576;55.694;37.494;2023-01-13T09:05:44;7.80;;;3.30;;
74213;SDS011;62576;55.694;37.494;2023-01-13T09:08:14;7.20;;;2.83;;
74213;SDS011;62576;55.694;37.494;2023-01-13T09:10:45;7.90;;;3.35;;
74213;SDS011;62576;55.694;37.494;2023-01-13T09:13:12;8.30;;;3.33;;
74213;SDS011;62576;55.694;37.494;2023-01-13T09:15:43;8.23;;;3.47;;
74213;SDS011;62576;55.694;37.494;2023-01-13T09:18:14;10.30;;;3.88;;
74213;SDS011;62576;55.694;37.494;2023-01-13T09:20:44;8.30;;;3.08;;
74213;SDS011;62576;55.694;37.494;2023-01-13T09:23:14;5.80;;;2.17;;
74213;SDS011;62576;55.694;37.494;2023-01-13T09:25:46;7.80;;;3.13;;
74213;SDS011;62576;55.694;37.494;2023-01-13T09:28:16;10.63;;;3.30;;
74213;SDS011;62576;55.694;37.494;2023-01-13T09:30:46;11.60;;;3.92;;
74213;SDS011;62576;55.694;37.494;2023-01-13T09:33:18;8.82;;;3.55;;
74213;SDS011;62576;55.694;37.494;2023-01-13T09:36:06;8.10;;;3.33;;
74213;SDS011;62576;55.694;37.494;2023-01-13T09:38:36;12.18;;;3.72;;
74213;SDS011;62576;55.694;37.494;2023-01-13T09:41:12;8.55;;;2.97;;
74213;SDS011;62576;55.694;37.494;2023-01-13T09:44:08;9.32;;;3.47;;
74213;SDS011;62576;55.694;37.494;2023-01-13T09:46:42;9.05;;;3.78;;
74213;SDS011;62576;55.694;37.494;2023-01-13T09:49:16;7.65;;;3.50;;
74213;SDS011;62576;55.694;37.494;2023-01-13T09:51:51;14.25;;;3.97;;
74213;SDS011;62576;55.694;37.494;2023-01-13T09:54:27;9.00;;;3.88;;
74213;SDS011;62576;55.694;37.494;2023-01-13T09:57:06;9.75;;;3.47;;
74213;SDS011;62576;55.694;37.494;2023-01-13T09:59:38;6.43;;;3.10;;
74213;SDS011;62576;55.694;37.494;2023-01-13T10:02:23;10.70;;;3.70;;
74213;SDS011;62576;55.694;37.494;2023-01-13T10:05:04;7.88;;;2.85;;
74213;SDS011;62576;55.694;37.494;2023-01-13T10:07:42;8.35;;;3.28;;
74213;SDS011;62576;55.694;37.494;2023-01-13T10:10:17;8.02;;;3.20;;
74213;SDS011;62576;55.694;37.494;2023-01-13T10:12:58;10.95;;;3.88;;
74213;SDS011;62576;55.694;37.494;2023-01-13T10:15:45;10.32;;;3.75;;
74213;SDS011;62576;55.694;37.494;2023-01-13T10:18:24;11.43;;;3.80;;
74213;SDS011;62576;55.694;37.494;2023-01-13T10:21:01;8.65;;;3.65;;
74213;SDS011;62576;55.694;37.494;2023-01-13T10:26:36;11.50;;;3.85;;
74213;SDS011;62576;55.694;37.494;2023-01-13T10:29:21;9.73;;;3.50;;
74213;SDS011;62576;55.694;37.494;2023-01-13T10:31:54;11.18;;;3.78;;
74213;SDS011;62576;55.694;37.494;2023-01-13T10:34:29;8.45;;;3.45;;
74213;SDS011;62576;55.694;37.494;2023-01-13T10:37:09;11.30;;;3.90;;
74213;SDS011;62576;55.694;37.494;2023-01-13T10:39:50;7.15;;;3.17;;
74213;SDS011;62576;55.694;37.494;2023-01-13T10:42:23;5.70;;;2.58;;
74213;SDS011;62576;55.694;37.494;2023-01-13T10:44:56;10.45;;;3.97;;
74213;SDS011;62576;55.694;37.494;2023-01-13T10:47:27;9.00;;;3.42;;
74213;SDS011;62576;55.694;37.494;2023-01-13T10:50:26;8.75;;;3.20;;
74213;SDS011;62576;55.694;37.494;2023-01-13T10:52:58;9.35;;;3.40;;
74213;SDS011;62576;55.694;37.494;2023-01-13T10:55:29;8.45;;;3.80;;
74213;SDS011;62576;55.694;37.494;2023-01-13T11:00:48;9.25;;;3.85;;
74213;SDS011;62576;55.694;37.494;2023-01-13T11:03:33;9.05;;;3.47;;
74213;SDS011;62576;55.694;37.494;2023-01-13T11:06:08;8.55;;;3.20;;
74213;SDS011;62576;55.694;37.494;2023-01-13T11:08:49;11.43;;;3.55;;
74213;SDS011;62576;55.694;37.494;2023-01-13T11:17:08;8.68;;;3.20;;
74213;SDS011;62576;55.694;37.494;2023-01-13T11:19:51;8.68;;;3.65;;
74213;SDS011;62576;55.694;37.494;2023-01-13T11:22:28;8.70;;;3.63;;
74213;SDS011;62576;55.694;37.494;2023-01-13T11:25:03;9.18;;;3.63;;
74213;SDS011;62576;55.694;37.494;2023-01-13T11:27:39;8.10;;;3.60;;
74213;SDS011;62576;55.694;37.494;2023-01-13T11:35:59;10.13;;;3.80;;
74213;SDS011;62576;55.694;37.494;2023-01-13T11:38:36;12.70;;;2.97;;
74213;SDS011;62576;55.694;37.494;2023-01-13T11:46:57;9.20;;;3.50;;
74213;SDS011;62576;55.694;37.494;2023-01-13T11:49:30;11.25;;;3.30;;
74213;SDS011;62576;55.694;37.494;2023-01-13T11:52:03;8.77;;;3.47;;
74213;SDS011;62576;55.694;37.494;2023-01-13T11:54:44;8.57;;;3.22;;
74213;SDS011;62576;55.694;37.494;2023-01-13T12:00:20;7.15;;;3.15;;
74213;SDS011;62576;55.694;37.494;2023-01-13T12:05:58;9.18;;;3.72;;
74213;SDS011;62576;55.694;37.494;2023-01-13T12:11:26;8.18;;;3.63;;
74213;SDS011;62576;55.694;37.494;2023-01-13T12:14:23;10.52;;;3.28;;
74213;SDS011;62576;55.694;37.494;2023-01-13T12:17:02;8.93;;;3.60;;
74213;SDS011;62576;55.694;37.494;2023-01-13T12:19:44;9.70;;;3.42;;
74213;SDS011;62576;55.694;37.494;2023-01-13T12:22:22;9.40;;;3.88;;
74213;SDS011;62576;55.694;37.494;2023-01-13T12:24:58;10.50;;;3.90;;
74213;SDS011;62576;55.694;37.494;2023-01-13T12:27:37;7.18;;;2.90;;
74213;SDS011;62576;55.694;37.494;2023-01-13T12:30:15;10.35;;;4.25;;
74213;SDS011;62576;55.694;37.494;2023-01-13T12:32:52;9.75;;;3.83;;
74213;SDS011;62576;55.694;37.494;2023-01-13T12:35:30;8.07;;;3.30;;
74213;SDS011;62576;55.694;37.494;2023-01-13T12:38:10;11.32;;;4.10;;
74213;SDS011;62576;55.694;37.494;2023-01-13T12:40:50;10.90;;;3.80;;
74213;SDS011;62576;55.694;37.494;2023-01-13T12:43:30;13.77;;;4.22;;
74213;SDS011;62576;55.694;37.494;2023-01-13T12:49:28;9.45;;;4.05;;
74213;SDS011;62576;55.694;37.494;2023-01-13T12:52:03;10.73;;;4.22;;
74213;SDS011;62576;55.694;37.494;2023-01-13T13:00:30;10.38;;;4.05;;
74213;SDS011;62576;55.694;37.494;2023-01-13T13:05:58;9.48;;;3.80;;
74213;SDS011;62576;55.694;37.494;2023-01-13T13:08:42;10.82;;;4.18;;
74213;SDS011;62576;55.694;37.494;2023-01-13T13:11:36;8.85;;;3.53;;
74213;SDS011;62576;55.694;37.494;2023-01-13T13:17:40;9.98;;;4.40;;
74213;SDS011;62576;55.694;37.494;2023-01-13T13:26:29;11.32;;;4.18;;
74213;SDS011;62576;55.694;37.494;2023-01-13T13:29:18;10.38;;;4.45;;
74213;SDS011;62576;55.694;37.494;2023-01-13T13:32:04;11.45;;;4.70;;
74213;SDS011;62576;55.694;37.494;2023-01-13T13:34:52;14.15;;;4.47;;
74213;SDS011;62576;55.694;37.494;2023-01-13T13:40:45;15.27;;;4.30;;
74213;SDS011;62576;55.694;37.494;2023-01-13T13:43:38;10.15;;;4.18;;
74213;SDS011;62576;55.694;37.494;2023-01-13T13:46:28;10.38;;;4.00;;
74213;SDS011;62576;55.694;37.494;2023-01-13T13:49:16;12.32;;;4.03;;
74213;SDS011;62576;55.694;37.494;2023-01-13T13:51:49;15.00;;;4.53;;
74213;SDS011;62576;55.694;37.494;2023-01-13T13:54:27;13.95;;;4.85;;
74213;SDS011;62576;55.694;37.494;2023-01-13T13:56:58;15.85;;;5.13;;
74213;SDS011;62576;55.694;37.494;2023-01-13T13:59:30;13.55;;;4.90;;
74213;SDS011;62576;55.694;37.494;2023-01-13T14:02:02;11.65;;;4.30;;
74213;SDS011;62576;55.694;37.494;2023-01-13T14:04:43;12.10;;;4.65;;
74213;SDS011;62576;55.694;37.494;2023-01-13T14:07:14;11.30;;;4.15;;
74213;SDS011;62576;55.694;37.494;2023-01-13T14:09:49;11.23;;;4.60;;
74213;SDS011;62576;55.694;37.494;2023-01-13T14:12:19;12.07;;;4.82;;
74213;SDS011;62576;55.694;37.494;2023-01-13T14:14:52;11.98;;;4.45;;
74213;SDS011;62576;55.694;37.494;2023-01-13T14:17:25;7.70;;;3.30;;
74213;SDS011;62576;55.694;37.494;2023-01-13T14:19:58;11.82;;;4.80;;
74213;SDS011;62576;55.694;37.494;2023-01-13T14:22:32;10.73;;;4.22;;
74213;SDS011;62576;55.694;37.494;2023-01-13T14:25:04;15.18;;;5.07;;
74213;SDS011;62576;55.694;37.494;2023-01-13T14:27:58;13.25;;;5.05;;
74213;SDS011;62576;55.694;37.494;2023-01-13T14:30:45;9.50;;;3.75;;
74213;SDS011;62576;55.694;37.494;2023-01-13T14:33:17;14.80;;;4.97;;
74213;SDS011;62576;55.694;37.494;2023-01-13T14:38:44;14.52;;;4.95;;
74213;SDS011;62576;55.694;37.494;2023-01-13T14:41:19;14.07;;;4.90;;
74213;SDS011;62576;55.694;37.494;2023-01-13T14:43:53;13.57;;;5.38;;
74213;SDS011;62576;55.694;37.494;2023-01-13T14:46:36;13.02;;;4.78;;
74213;SDS011;62576;55.694;37.494;2023-01-13T14:49:10;18.48;;;5.75;;
74213;SDS011;62576;55.694;37.494;2023-01-13T14:51:50;15.63;;;5.32;;
74213;SDS011;62576;55.694;37.494;2023-01-13T15:00:15;12.07;;;4.28;;
74213;SDS011;62576;55.694;37.494;2023-01-13T15:03:02;16.65;;;5.13;;
74213;SDS011;62576;55.694;37.494;2023-01-13T15:05:37;15.30;;;5.75;;
74213;SDS011;62576;55.694;37.494;2023-01-13T15:08:24;15.15;;;6.10;;
74213;SDS011;62576;55.694;37.494;2023-01-13T15:10:57;15.40;;;5.53;;
74213;SDS011;62576;55.694;37.494;2023-01-13T15:13:30;18.70;;;6.50;;
74213;SDS011;62576;55.694;37.494;2023-01-13T15:16:05;13.60;;;5.78;;
74213;SDS011;62576;55.694;37.494;2023-01-13T15:18:43;13.98;;;5.55;;
74213;SDS011;62576;55.694;37.494;2023-01-13T15:21:15;19.00;;;6.63;;
74213;SDS011;62576;55.694;37.494;2023-01-13T15:23:46;15.70;;;6.25;;
74213;SDS011;62576;55.694;37.494;2023-01-13T15:26:20;18.10;;;5.85;;
74213;SDS011;62576;55.694;37.494;2023-01-13T15:28:52;14.77;;;5.57;;
74213;SDS011;62576;55.694;37.494;2023-01-13T15:31:23;19.85;;;6.28;;
74213;SDS011;62576;55.694;37.494;2023-01-13T15:33:55;16.70;;;6.15;;
74213;SDS011;62576;55.694;37.494;2023-01-13T15:36:26;15.60;;;5.63;;
74213;SDS011;62576;55.694;37.494;2023-01-13T15:38:58;14.43;;;5.55;;
74213;SDS011;62576;55.694;37.494;2023-01-13T15:41:29;14.45;;;5.10;;
74213;SDS011;62576;55.694;37.494;2023-01-13T15:44:16;19.95;;;6.15;;
74213;SDS011;62576;55.694;37.494;2023-01-13T15:47:05;17.38;;;6.00;;
74213;SDS011;62576;55.694;37.494;2023-01-13T15:49:39;21.15;;;6.32;;
74213;SDS011;62576;55.694;37.494;2023-01-13T15:52:16;14.80;;;5.47;;
74213;SDS011;62576;55.694;37.494;2023-01-13T15:54:49;18.75;;;6.03;;
74213;SDS011;62576;55.694;37.494;2023-01-13T15:57:21;15.93;;;5.55;;
74213;SDS011;62576;55.694;37.494;2023-01-13T15:59:55;17.80;;;6.72;;
74213;SDS011;62576;55.694;37.494;2023-01-13T16:02:28;16.98;;;6.45;;
74213;SDS011;62576;55.694;37.494;2023-01-13T16:05:01;17.40;;;6.28;;
74213;SDS011;62576;55.694;37.494;2023-01-13T16:07:33;15.65;;;4.80;;
74213;SDS011;62576;55.694;37.494;2023-01-13T16:10:04;15.20;;;5.82;;
74213;SDS011;62576;55.694;37.494;2023-01-13T16:12:37;16.52;;;6.13;;
74213;SDS011;62576;55.694;37.494;2023-01-13T16:15:08;14.77;;;5.93;;
74213;SDS011;62576;55.694;37.494;2023-01-13T16:17:42;17.05;;;6.43;;
74213;SDS011;62576;55.694;37.494;2023-01-13T16:20:22;19.77;;;5.72;;
74213;SDS011;62576;55.694;37.494;2023-01-13T16:22:53;17.52;;;5.95;;
74213;SDS011;62576;55.694;37.494;2023-01-13T16:25:24;18.42;;;6.43;;
74213;SDS011;62576;55.694;37.494;2023-01-13T16:27:56;17.67;;;5.75;;
74213;SDS011;62576;55.694;37.494;2023-01-13T16:30:26;17.15;;;5.78;;
74213;SDS011;62576;55.694;37.494;2023-01-13T16:32:58;13.07;;;5.28;;
74213;SDS011;62576;55.694;37.494;2023-01-13T16:35:29;20.30;;;6.13;;
74213;SDS011;62576;55.694;37.494;2023-01-13T16:38:00;16.45;;;6.18;;